createdAt,value
2022-09-29T00:03:58.566Z,3.67
2022-09-29T00:09:00.087Z,3.40
2022-09-29T00:14:01.666Z,3.65
2022-09-29T00:19:03.942Z,3.50
2022-09-29T00:24:05.590Z,2.83
2022-09-29T00:29:07.218Z,2.78
2022-09-29T00:34:08.769Z,3.05
2022-09-29T00:39:10.657Z,3.40
2022-09-29T00:44:14.986Z,2.83
2022-09-29T00:49:38.792Z,2.55
2022-09-29T00:54:46.192Z,2.90
2022-09-29T01:00:04.493Z,3.20
2022-09-29T01:05:09.135Z,3.17
2022-09-29T01:10:11.727Z,2.85
2022-09-29T01:15:14.458Z,3.25
2022-09-29T01:20:22.539Z,3.70
2022-09-29T01:25:51.248Z,3.00
2022-09-29T01:31:05.865Z,4.20
2022-09-29T01:36:27.112Z,2.80
2022-09-29T01:41:38.742Z,2.50
2022-09-29T01:46:44.392Z,2.50
2022-09-29T01:51:59.580Z,3.70
2022-09-29T01:57:10.688Z,2.35
2022-09-29T02:02:19.149Z,2.20
2022-09-29T02:07:26.276Z,2.78
2022-09-29T02:12:29.532Z,2.50
2022-09-29T02:17:34.123Z,2.33
2022-09-29T02:22:36.089Z,2.33
2022-09-29T02:27:37.828Z,2.60
2022-09-29T02:32:39.435Z,2.20
2022-09-29T02:37:47.368Z,2.45
2022-09-29T02:43:07.472Z,2.80
2022-09-29T02:48:21.738Z,2.58
2022-09-29T02:53:43.340Z,3.17
2022-09-29T02:59:01.989Z,3.40
2022-09-29T03:04:04.803Z,2.50
2022-09-29T03:09:06.542Z,3.78
2022-09-29T03:14:08.235Z,2.60
2022-09-29T03:19:09.773Z,2.58
2022-09-29T03:24:11.352Z,2.80
2022-09-29T03:29:12.926Z,3.80
2022-09-29T03:34:14.541Z,2.95
2022-09-29T03:39:16.105Z,2.42
2022-09-29T03:44:17.711Z,3.27
2022-09-29T03:49:19.460Z,2.72
2022-09-29T03:54:21.174Z,2.85
2022-09-29T03:59:22.711Z,2.85
2022-09-29T04:04:24.297Z,4.68
2022-09-29T04:09:25.928Z,4.10
2022-09-29T04:14:27.468Z,2.92
2022-09-29T04:19:28.980Z,3.50
2022-09-29T04:24:30.483Z,3.53
2022-09-29T04:29:32.009Z,3.05
2022-09-29T04:34:33.633Z,2.95
2022-09-29T04:39:35.431Z,3.13
2022-09-29T04:44:37.007Z,3.47
2022-09-29T04:49:38.714Z,4.90
2022-09-29T04:54:40.673Z,3.33
2022-09-29T04:59:42.238Z,4.30
2022-09-29T05:04:43.951Z,3.30
2022-09-29T05:09:45.539Z,3.35
2022-09-29T05:14:49.808Z,3.95
2022-09-29T05:19:53.476Z,3.50
2022-09-29T05:24:55.128Z,3.78
2022-09-29T05:29:56.678Z,4.07
2022-09-29T05:35:00.958Z,4.70
2022-09-29T05:40:02.613Z,4.68
2022-09-29T05:45:04.764Z,3.55
2022-09-29T05:50:06.883Z,4.32
2022-09-29T05:55:11.131Z,4.82
2022-09-29T06:00:14.048Z,4.60
2022-09-29T06:05:15.605Z,4.78
2022-09-29T06:10:17.271Z,5.38
2022-09-29T06:15:18.797Z,7.20
2022-09-29T06:20:21.877Z,4.38
2022-09-29T06:25:23.712Z,5.80
2022-09-29T06:30:25.391Z,10.57
2022-09-29T06:35:48.248Z,11.27
2022-09-29T06:40:49.861Z,6.00
2022-09-29T06:45:51.454Z,13.65
2022-09-29T06:51:05.151Z,6.97
2022-09-29T06:56:10.676Z,5.55
2022-09-29T07:01:12.827Z,7.38
2022-09-29T07:06:19.161Z,6.20
2022-09-29T07:11:21.874Z,11.88
2022-09-29T07:16:24.356Z,6.60
2022-09-29T07:21:26.114Z,5.70
2022-09-29T07:26:28.232Z,6.93
2022-09-29T07:31:35.376Z,5.45
2022-09-29T07:36:44.183Z,5.43
2022-09-29T07:41:45.810Z,5.25
2022-09-29T07:46:48.995Z,6.32
2022-09-29T07:51:50.549Z,6.65
2022-09-29T07:56:52.160Z,5.35
2022-09-29T08:01:54.054Z,5.10
2022-09-29T08:06:56.247Z,5.05
2022-09-29T08:12:06.854Z,5.60
2022-09-29T08:17:09.018Z,5.07
2022-09-29T08:22:10.522Z,5.22
2022-09-29T08:27:18.669Z,5.00
2022-09-29T08:32:20.764Z,7.53
2022-09-29T08:37:22.351Z,7.13
2022-09-29T08:42:36.190Z,5.65
2022-09-29T08:47:49.498Z,9.45
2022-09-29T08:52:54.854Z,5.18
2022-09-29T08:58:01.428Z,5.28
2022-09-29T09:03:09.097Z,9.98
2022-09-29T09:08:25.853Z,4.93
2022-09-29T09:13:27.388Z,5.32
2022-09-29T09:18:52.140Z,10.13
2022-09-29T09:23:59.887Z,5.22
2022-09-29T09:29:09.272Z,6.65
2022-09-29T09:34:35.177Z,5.28
2022-09-29T09:40:14.917Z,5.47
2022-09-29T09:45:31.560Z,5.00
2022-09-29T09:50:42.939Z,4.80
2022-09-29T09:55:47.447Z,10.02
2022-09-29T10:00:52.699Z,6.60
2022-09-29T10:05:54.363Z,5.05
2022-09-29T10:10:59.049Z,3.80
2022-09-29T10:16:13.236Z,4.55
2022-09-29T10:21:29.080Z,5.80
2022-09-29T10:26:37.892Z,5.50
2022-09-29T10:31:39.911Z,4.82
2022-09-29T10:36:56.768Z,2.97
2022-09-29T10:41:58.547Z,3.80
2022-09-29T10:47:00.408Z,3.83
2022-09-29T10:52:06.961Z,2.97
2022-09-29T10:57:14.407Z,3.10
2022-09-29T11:02:23.697Z,3.17
2022-09-29T11:07:25.295Z,3.35
2022-09-29T11:12:34.013Z,2.25
2022-09-29T11:17:38.805Z,4.63
2022-09-29T11:22:43.416Z,3.55
2022-09-29T11:27:53.996Z,4.32
2022-09-29T11:32:55.427Z,2.20
2022-09-29T11:37:59.650Z,3.03
2022-09-29T11:43:04.939Z,3.63
2022-09-29T11:48:27.331Z,3.03
2022-09-29T11:53:51.261Z,3.83
2022-09-29T11:59:04.705Z,4.50
2022-09-29T12:04:54.376Z,7.40
2022-09-29T12:10:26.364Z,17.90
2022-09-29T12:15:46.643Z,4.07
2022-09-29T12:20:50.444Z,2.65
2022-09-29T12:26:05.126Z,7.00
2022-09-29T12:31:23.879Z,2.92
2022-09-29T12:36:44.244Z,4.90
2022-09-29T12:41:50.091Z,4.18
2022-09-29T12:47:16.454Z,1.35
2022-09-29T12:52:21.292Z,2.13
2022-09-29T12:57:36.744Z,3.47
2022-09-29T13:03:03.357Z,6.20
2022-09-29T13:08:41.174Z,3.28
2022-09-29T13:14:17.975Z,8.38
2022-09-29T13:19:57.465Z,2.40
2022-09-29T13:25:08.659Z,5.38
2022-09-29T13:30:16.145Z,1.60
2022-09-29T13:35:21.530Z,2.03
2022-09-29T13:40:26.827Z,2.50
2022-09-29T13:45:31.684Z,4.68
2022-09-29T13:50:50.226Z,3.47
2022-09-29T13:55:56.419Z,2.85
2022-09-29T14:01:00.689Z,2.60
2022-09-29T14:11:44.551Z,5.82
2022-09-29T14:17:08.631Z,2.58
2022-09-29T14:22:32.029Z,3.05
2022-09-29T14:27:52.385Z,4.20
2022-09-29T14:32:56.482Z,1.95
2022-09-29T14:38:06.680Z,3.20
2022-09-29T14:43:15.603Z,3.25
2022-09-29T14:48:53.651Z,3.45
2022-09-29T14:54:25.387Z,2.90
2022-09-29T14:59:48.063Z,2.10
2022-09-29T15:04:49.816Z,3.25
2022-09-29T15:09:54.204Z,2.00
2022-09-29T15:14:58.094Z,1.80
2022-09-29T15:20:16.834Z,2.30
2022-09-29T15:25:29.399Z,5.65
2022-09-29T15:30:31.916Z,2.92
2022-09-29T15:35:39.324Z,3.42
2022-09-29T15:40:40.829Z,2.40
2022-09-29T15:45:52.949Z,2.47
2022-09-29T15:50:55.835Z,2.72
2022-09-29T15:55:57.432Z,2.78
2022-09-29T16:00:58.903Z,2.50
2022-09-29T16:06:04.709Z,3.42
2022-09-29T16:11:19.514Z,2.63
2022-09-29T16:16:27.273Z,2.95
2022-09-29T16:21:35.175Z,3.67
2022-09-29T16:26:43.198Z,3.40
2022-09-29T16:31:49.179Z,4.18
2022-09-29T16:36:52.156Z,3.10
2022-09-29T16:41:58.738Z,3.58
2022-09-29T16:47:15.874Z,5.00
2022-09-29T16:52:28.730Z,4.32
2022-09-29T16:57:31.454Z,4.75
2022-09-29T17:02:33.057Z,6.40
2022-09-29T17:07:39.356Z,5.90
2022-09-29T17:12:41.166Z,5.18
2022-09-29T17:17:44.821Z,4.75
2022-09-29T17:22:46.965Z,5.05
2022-09-29T17:28:07.573Z,5.18
2022-09-29T17:33:12.103Z,5.78
2022-09-29T17:38:14.975Z,5.75
2022-09-29T17:43:19.908Z,6.13
2022-09-29T17:48:21.634Z,7.60
2022-09-29T17:53:24.334Z,6.57
2022-09-29T17:58:25.895Z,7.07
2022-09-29T18:03:29.321Z,5.60
2022-09-29T18:08:30.888Z,6.72
2022-09-29T18:13:32.471Z,8.30
2022-09-29T18:18:34.703Z,5.78
2022-09-29T18:23:39.571Z,6.40
2022-09-29T18:28:41.184Z,8.85
2022-09-29T18:33:42.809Z,7.05
2022-09-29T18:38:44.493Z,6.43
2022-09-29T18:43:49.094Z,8.88
2022-09-29T18:48:50.851Z,7.60
2022-09-29T18:53:52.858Z,7.47
2022-09-29T18:58:54.416Z,7.53
2022-09-29T19:03:56.416Z,7.45
2022-09-29T19:08:58.115Z,8.10
2022-09-29T19:13:59.743Z,8.60
2022-09-29T19:19:04.268Z,9.35
2022-09-29T19:24:05.834Z,7.55
2022-09-29T19:29:07.398Z,8.10
2022-09-29T19:34:08.897Z,8.52
2022-09-29T19:39:12.008Z,7.18
2022-09-29T19:44:13.570Z,9.27
2022-09-29T19:49:15.483Z,9.00
2022-09-29T19:54:20.273Z,9.07
2022-09-29T19:59:26.419Z,7.47
2022-09-29T20:04:33.200Z,7.22
2022-09-29T20:09:35.015Z,7.22
2022-09-29T20:14:37.863Z,6.68
2022-09-29T20:19:39.392Z,9.07
2022-09-29T20:24:40.970Z,7.38
2022-09-29T20:29:42.529Z,8.60
2022-09-29T20:34:44.057Z,10.25
2022-09-29T20:39:45.650Z,9.68
2022-09-29T20:44:47.243Z,7.43
2022-09-29T20:49:48.842Z,9.88
2022-09-29T20:54:50.417Z,7.20
2022-09-29T20:59:51.936Z,7.63
2022-09-29T21:04:54.008Z,9.73
2022-09-29T21:09:55.617Z,7.70
2022-09-29T21:14:57.153Z,7.25
2022-09-29T21:19:58.685Z,8.15
2022-09-29T21:25:00.265Z,9.13
2022-09-29T21:30:02.364Z,7.53
2022-09-29T21:35:04.231Z,7.85
2022-09-29T21:40:06.214Z,8.23
2022-09-29T21:45:10.124Z,8.30
2022-09-29T21:50:11.958Z,9.07
2022-09-29T21:55:13.605Z,10.25
2022-09-29T22:00:17.264Z,8.77
2022-09-29T22:05:18.933Z,10.70
2022-09-29T22:10:20.430Z,7.82
2022-09-29T22:15:21.956Z,9.05
2022-09-29T22:20:23.491Z,10.30
2022-09-29T22:25:27.494Z,9.73
2022-09-29T22:30:32.186Z,8.30
2022-09-29T22:35:37.470Z,8.13
2022-09-29T22:40:40.127Z,7.28
2022-09-29T22:45:41.728Z,11.07
2022-09-29T22:50:47.402Z,7.05
2022-09-29T22:55:48.948Z,9.30
2022-09-29T23:01:02.512Z,7.88
2022-09-29T23:06:05.819Z,7.93
2022-09-29T23:11:08.237Z,7.97
2022-09-29T23:16:12.815Z,8.02
2022-09-29T23:21:19.122Z,9.00
2022-09-29T23:26:20.968Z,8.60
2022-09-29T23:31:22.958Z,7.60
2022-09-29T23:36:26.414Z,7.30
2022-09-29T23:41:30.032Z,7.90
2022-09-29T23:46:33.535Z,7.32
2022-09-29T23:51:36.984Z,7.25
2022-09-29T23:56:39.055Z,7.20
